createdAt,value
2022-08-20T00:00:05.855Z,1010.48
2022-08-20T00:00:15.280Z,1010.55
2022-08-20T00:00:24.681Z,1010.51
2022-08-20T00:00:34.099Z,1010.52
2022-08-20T00:00:43.509Z,1010.51
2022-08-20T00:00:52.909Z,1010.53
2022-08-20T00:01:02.631Z,1010.56
2022-08-20T00:01:11.805Z,1010.48
2022-08-20T00:01:21.204Z,1010.52
2022-08-20T00:01:30.661Z,1010.53
2022-08-20T00:01:40.095Z,1010.57
2022-08-20T00:01:49.512Z,1010.49
2022-08-20T00:01:58.913Z,1010.47
2022-08-20T00:02:08.322Z,1010.52
2022-08-20T00:02:17.715Z,1010.47
2022-08-20T00:02:27.088Z,1010.49
2022-08-20T00:02:45.956Z,1010.49
2022-08-20T00:02:55.353Z,1010.53
2022-08-20T00:03:04.731Z,1010.49
2022-08-20T00:03:14.153Z,1010.50
2022-08-20T00:03:23.554Z,1010.47
2022-08-20T00:03:32.955Z,1010.54
2022-08-20T00:03:44.710Z,1010.54
2022-08-20T00:03:53.520Z,1010.50
2022-08-20T00:04:01.665Z,1010.51
2022-08-20T00:04:10.643Z,1010.53
2022-08-20T00:04:20.056Z,1010.47
2022-08-20T00:04:29.454Z,1010.54
2022-08-20T00:04:39.766Z,1010.52
2022-08-20T00:04:48.268Z,1010.45
2022-08-20T00:04:57.692Z,1010.51
2022-08-20T00:05:07.101Z,1010.49
2022-08-20T00:05:25.999Z,1010.44
2022-08-20T00:05:35.390Z,1010.49
2022-08-20T00:05:44.813Z,1010.48
2022-08-20T00:05:56.780Z,1010.52
2022-08-20T00:06:03.693Z,1010.53
2022-08-20T00:06:13.091Z,1010.51
2022-08-20T00:06:22.519Z,1010.48
2022-08-20T00:06:31.916Z,1010.54
2022-08-20T00:06:41.337Z,1010.59
2022-08-20T00:06:50.750Z,1010.49
2022-08-20T00:07:00.187Z,1010.46
2022-08-20T00:07:09.611Z,1010.52
2022-08-20T00:07:19.031Z,1010.48
2022-08-20T00:07:28.649Z,1010.49
2022-08-20T00:07:38.047Z,1010.49
2022-08-20T00:07:47.482Z,1010.51
2022-08-20T00:07:57.036Z,1010.50
2022-08-20T00:08:15.849Z,1010.48
2022-08-20T00:08:25.322Z,1010.50
2022-08-20T00:08:34.706Z,1010.48
2022-08-20T00:08:44.122Z,1010.49
2022-08-20T00:08:53.521Z,1010.52
2022-08-20T00:09:03.069Z,1010.50
2022-08-20T00:09:12.488Z,1010.53
2022-08-20T00:09:21.889Z,1010.51
2022-08-20T00:09:31.322Z,1010.45
2022-08-20T00:09:40.717Z,1010.47
2022-08-20T00:09:50.131Z,1010.51
2022-08-20T00:09:59.614Z,1010.49
2022-08-20T00:10:09.013Z,1010.49
2022-08-20T00:10:18.433Z,1010.48
2022-08-20T00:10:27.922Z,1010.53
2022-08-20T00:10:37.343Z,1010.48
2022-08-20T00:10:47.664Z,1010.48
2022-08-20T00:11:05.579Z,1010.45
2022-08-20T00:11:15.027Z,1010.39
2022-08-20T00:11:25.103Z,1010.42
2022-08-20T00:11:33.864Z,1010.42
2022-08-20T00:11:43.258Z,1010.44
2022-08-20T00:11:52.670Z,1010.48
2022-08-20T00:12:02.094Z,1010.47
2022-08-20T00:12:11.564Z,1010.46
2022-08-20T00:12:20.976Z,1010.45
2022-08-20T00:12:30.379Z,1010.45
2022-08-20T00:12:39.771Z,1010.44
2022-08-20T00:12:49.195Z,1010.38
2022-08-20T00:12:58.617Z,1010.46
2022-08-20T00:13:08.043Z,1010.44
2022-08-20T00:13:18.132Z,1010.39
2022-08-20T00:13:26.886Z,1010.50
2022-08-20T00:13:45.760Z,1010.41
2022-08-20T00:13:55.191Z,1010.47
2022-08-20T00:14:04.605Z,1010.52
2022-08-20T00:14:14.023Z,1010.44
2022-08-20T00:14:23.428Z,1010.53
2022-08-20T00:14:33.925Z,1010.43
2022-08-20T00:14:42.262Z,1010.43
2022-08-20T00:14:51.679Z,1010.48
2022-08-20T00:15:01.156Z,1010.43
2022-08-20T00:15:10.568Z,1010.46
2022-08-20T00:15:19.984Z,1010.40
2022-08-20T00:15:29.389Z,1010.45
2022-08-20T00:15:38.811Z,1010.41
2022-08-20T00:15:48.190Z,1010.41
2022-08-20T00:15:57.613Z,1010.49
2022-08-20T00:16:07.024Z,1010.46
2022-08-20T00:16:25.896Z,1010.40
2022-08-20T00:16:35.294Z,1010.44
2022-08-20T00:16:44.730Z,1010.42
2022-08-20T00:16:54.130Z,1010.48
2022-08-20T00:17:03.572Z,1010.41
2022-08-20T00:17:12.983Z,1010.43
2022-08-20T00:17:22.383Z,1010.41
2022-08-20T00:17:31.802Z,1010.44
2022-08-20T00:17:41.215Z,1010.37
2022-08-20T00:17:50.756Z,1010.44
2022-08-20T00:18:00.077Z,1010.41
2022-08-20T00:18:09.456Z,1010.39
2022-08-20T00:18:18.862Z,1010.51
2022-08-20T00:18:28.275Z,1010.45
2022-08-20T00:18:37.666Z,1010.39
2022-08-20T00:18:47.134Z,1010.48
2022-08-20T00:19:05.940Z,1010.46
2022-08-20T00:19:15.406Z,1010.44
2022-08-20T00:19:24.816Z,1010.36
2022-08-20T00:19:34.212Z,1010.40
2022-08-20T00:19:43.625Z,1010.34
2022-08-20T00:19:53.027Z,1010.46
2022-08-20T00:20:02.559Z,1010.41
2022-08-20T00:20:11.985Z,1010.40
2022-08-20T00:20:21.439Z,1010.44
2022-08-20T00:20:30.909Z,1010.47
2022-08-20T00:20:40.339Z,1010.46
2022-08-20T00:20:49.732Z,1010.35
2022-08-20T00:20:59.136Z,1010.41
2022-08-20T00:21:08.550Z,1010.44
2022-08-20T00:21:18.826Z,1010.42
2022-08-20T00:21:27.370Z,1010.40
2022-08-20T00:21:36.771Z,1010.45
2022-08-20T00:21:58.007Z,1010.40
2022-08-20T00:22:04.961Z,1010.41
2022-08-20T00:22:14.425Z,1010.47
2022-08-20T00:22:23.846Z,1010.45
2022-08-20T00:22:33.248Z,1010.41
2022-08-20T00:22:42.649Z,1010.47
2022-08-20T00:22:52.067Z,1010.46
2022-08-20T00:23:01.543Z,1010.38
2022-08-20T00:23:10.929Z,1010.42
2022-08-20T00:23:20.329Z,1010.42
2022-08-20T00:23:29.725Z,1010.47
2022-08-20T00:23:39.139Z,1010.47
2022-08-20T00:23:48.547Z,1010.42
2022-08-20T00:23:57.955Z,1010.45
2022-08-20T00:24:07.371Z,1010.40
2022-08-20T00:24:16.861Z,1010.42
2022-08-20T00:24:35.701Z,1010.39
2022-08-20T00:24:45.153Z,1010.46
2022-08-20T00:24:54.574Z,1010.38
2022-08-20T00:25:04.012Z,1010.45
2022-08-20T00:25:13.437Z,1010.42
2022-08-20T00:25:22.843Z,1010.42
2022-08-20T00:25:32.282Z,1010.45
2022-08-20T00:25:41.700Z,1010.43
2022-08-20T00:25:51.109Z,1010.42
2022-08-20T00:26:00.539Z,1010.46
2022-08-20T00:26:09.949Z,1010.43
2022-08-20T00:26:19.357Z,1010.46
2022-08-20T00:26:28.771Z,1010.43
2022-08-20T00:26:38.172Z,1010.41
2022-08-20T00:26:52.520Z,1010.39
2022-08-20T00:26:57.005Z,1010.36
2022-08-20T00:27:15.903Z,1010.46
2022-08-20T00:27:25.311Z,1010.42
2022-08-20T00:27:34.717Z,1010.44
2022-08-20T00:27:44.111Z,1010.46
2022-08-20T00:27:53.532Z,1010.51
2022-08-20T00:28:03.000Z,1010.44
2022-08-20T00:28:12.384Z,1010.40
2022-08-20T00:28:21.804Z,1010.51
2022-08-20T00:28:31.213Z,1010.43
2022-08-20T00:28:40.641Z,1010.41
2022-08-20T00:28:50.059Z,1010.40
2022-08-20T00:28:59.476Z,1010.46
2022-08-20T00:29:08.901Z,1010.52
2022-08-20T00:29:20.114Z,1010.49
2022-08-20T00:29:27.750Z,1010.44
2022-08-20T00:29:37.133Z,1010.44
2022-08-20T00:29:55.938Z,1010.50
2022-08-20T00:30:05.459Z,1010.49
2022-08-20T00:30:14.856Z,1010.47
2022-08-20T00:30:24.267Z,1010.42
2022-08-20T00:30:33.688Z,1010.45
2022-08-20T00:30:43.114Z,1010.46
2022-08-20T00:30:52.530Z,1010.49
2022-08-20T00:31:01.958Z,1010.45
2022-08-20T00:31:11.461Z,1010.43
2022-08-20T00:31:20.857Z,1010.46
2022-08-20T00:31:30.297Z,1010.46
2022-08-20T00:31:39.694Z,1010.48
2022-08-20T00:31:49.091Z,1010.40
2022-08-20T00:31:58.511Z,1010.47
2022-08-20T00:32:07.914Z,1010.38
2022-08-20T00:32:17.317Z,1010.41
2022-08-20T00:32:26.735Z,1010.51
2022-08-20T00:32:45.586Z,1010.44
2022-08-20T00:32:55.013Z,1010.33
2022-08-20T00:33:04.419Z,1010.33
2022-08-20T00:33:13.845Z,1010.38
2022-08-20T00:33:23.272Z,1010.36
2022-08-20T00:33:32.685Z,1010.39
2022-08-20T00:33:42.113Z,1010.37
2022-08-20T00:33:51.561Z,1010.40
2022-08-20T00:34:01.039Z,1010.37
2022-08-20T00:34:10.470Z,1010.41
2022-08-20T00:34:19.890Z,1010.43
2022-08-20T00:34:29.316Z,1010.43
2022-08-20T00:34:38.734Z,1010.35
2022-08-20T00:34:48.161Z,1010.35
2022-08-20T00:34:57.587Z,1010.39
2022-08-20T00:35:07.033Z,1010.34
2022-08-20T00:35:25.878Z,1010.34
2022-08-20T00:35:35.287Z,1010.36
2022-08-20T00:35:44.733Z,1010.32
2022-08-20T00:35:54.173Z,1010.44
2022-08-20T00:36:03.594Z,1010.38
2022-08-20T00:36:12.984Z,1010.38
2022-08-20T00:36:22.402Z,1010.40
2022-08-20T00:36:32.947Z,1010.40
2022-08-20T00:36:41.309Z,1010.43
2022-08-20T00:36:50.735Z,1010.49
2022-08-20T00:37:00.151Z,1010.44
2022-08-20T00:37:09.572Z,1010.40
2022-08-20T00:37:18.992Z,1010.49
2022-08-20T00:37:28.401Z,1010.39
2022-08-20T00:37:37.845Z,1010.42
2022-08-20T00:37:47.252Z,1010.47
2022-08-20T00:38:06.107Z,1010.39
2022-08-20T00:38:15.535Z,1010.43
2022-08-20T00:38:24.936Z,1010.43
2022-08-20T00:38:34.360Z,1010.43
2022-08-20T00:38:43.784Z,1010.42
2022-08-20T00:38:53.238Z,1010.43
2022-08-20T00:39:02.653Z,1010.45
2022-08-20T00:39:12.073Z,1010.40
2022-08-20T00:39:21.514Z,1010.52
2022-08-20T00:39:30.989Z,1010.48
2022-08-20T00:39:40.571Z,1010.49
2022-08-20T00:39:49.876Z,1010.38
2022-08-20T00:39:59.442Z,1010.39
2022-08-20T00:40:22.177Z,1010.43
2022-08-20T00:40:22.408Z,1010.43
2022-08-20T00:40:27.581Z,1010.37
2022-08-20T00:40:37.008Z,1010.35
2022-08-20T00:40:55.867Z,1010.48
2022-08-20T00:41:05.283Z,1010.46
2022-08-20T00:41:14.717Z,1010.41
2022-08-20T00:41:24.142Z,1010.43
2022-08-20T00:41:33.624Z,1010.45
2022-08-20T00:41:43.013Z,1010.44
2022-08-20T00:41:52.429Z,1010.43
2022-08-20T00:42:01.859Z,1010.41
2022-08-20T00:42:11.279Z,1010.39
2022-08-20T00:42:20.732Z,1010.48
2022-08-20T00:42:30.262Z,1010.46
2022-08-20T00:42:39.752Z,1010.40
2022-08-20T00:42:49.184Z,1010.47
2022-08-20T00:42:58.621Z,1010.43
2022-08-20T00:43:08.026Z,1010.41
2022-08-20T00:43:17.460Z,1010.47
2022-08-20T00:43:26.862Z,1010.45
2022-08-20T00:43:45.694Z,1010.46
2022-08-20T00:43:55.111Z,1010.38
2022-08-20T00:44:04.536Z,1010.46
2022-08-20T00:44:14.026Z,1010.46
2022-08-20T00:44:23.429Z,1010.38
2022-08-20T00:44:32.865Z,1010.51
2022-08-20T00:44:42.281Z,1010.46
2022-08-20T00:44:51.703Z,1010.48
2022-08-20T00:45:01.128Z,1010.45
2022-08-20T00:45:10.567Z,1010.50
2022-08-20T00:45:19.967Z,1010.47
2022-08-20T00:45:29.386Z,1010.49
2022-08-20T00:45:38.823Z,1010.49
2022-08-20T00:45:48.220Z,1010.49
2022-08-20T00:45:57.674Z,1010.44
2022-08-20T00:46:07.100Z,1010.48
2022-08-20T00:46:28.198Z,1010.42
2022-08-20T00:46:35.369Z,1010.57
2022-08-20T00:46:44.784Z,1010.56
2022-08-20T00:46:54.226Z,1010.52
2022-08-20T00:47:03.647Z,1010.52
2022-08-20T00:47:13.067Z,1010.50
2022-08-20T00:47:22.477Z,1010.46
2022-08-20T00:47:31.892Z,1010.54
2022-08-20T00:47:41.313Z,1010.52
2022-08-20T00:47:51.193Z,1010.53
2022-08-20T00:48:00.178Z,1010.57
2022-08-20T00:48:09.645Z,1010.50
2022-08-20T00:48:19.071Z,1010.50
2022-08-20T00:48:28.477Z,1010.54
2022-08-20T00:48:37.895Z,1010.54
2022-08-20T00:48:47.309Z,1010.59
2022-08-20T00:49:06.138Z,1010.57
2022-08-20T00:49:15.546Z,1010.51
2022-08-20T00:49:24.984Z,1010.55
2022-08-20T00:49:34.357Z,1010.58
2022-08-20T00:49:43.751Z,1010.58
2022-08-20T00:49:53.175Z,1010.61
2022-08-20T00:50:02.597Z,1010.60
2022-08-20T00:50:12.071Z,1010.53
2022-08-20T00:50:21.500Z,1010.60
2022-08-20T00:50:30.962Z,1010.56
2022-08-20T00:50:40.367Z,1010.63
2022-08-20T00:50:49.800Z,1010.60
2022-08-20T00:50:59.211Z,1010.59
2022-08-20T00:51:08.600Z,1010.58
2022-08-20T00:51:18.022Z,1010.60
2022-08-20T00:51:27.445Z,1010.62
2022-08-20T00:51:36.840Z,1010.59
2022-08-20T00:51:55.693Z,1010.57
2022-08-20T00:52:05.133Z,1010.76
2022-08-20T00:52:14.527Z,1010.69
2022-08-20T00:52:23.944Z,1010.75
2022-08-20T00:52:33.340Z,1010.70
2022-08-20T00:52:42.746Z,1010.71
2022-08-20T00:52:52.172Z,1010.72
2022-08-20T00:53:01.592Z,1010.72
2022-08-20T00:53:11.014Z,1010.76
2022-08-20T00:53:20.431Z,1010.72
2022-08-20T00:53:29.837Z,1010.72
2022-08-20T00:53:39.259Z,1010.75
2022-08-20T00:53:48.695Z,1010.74
2022-08-20T00:53:58.107Z,1010.75
2022-08-20T00:54:07.536Z,1010.72
2022-08-20T00:54:16.962Z,1010.73
2022-08-20T00:54:35.779Z,1010.76
2022-08-20T00:54:45.187Z,1010.71
2022-08-20T00:54:54.591Z,1010.83
2022-08-20T00:55:03.997Z,1010.76
2022-08-20T00:55:13.430Z,1010.77
2022-08-20T00:55:22.888Z,1010.75
2022-08-20T00:55:32.335Z,1010.78
2022-08-20T00:55:41.742Z,1010.77
2022-08-20T00:55:51.245Z,1010.75
2022-08-20T00:56:00.709Z,1010.75
2022-08-20T00:56:10.135Z,1010.75
2022-08-20T00:56:19.598Z,1010.83
2022-08-20T00:56:28.998Z,1010.75
2022-08-20T00:56:38.429Z,1010.80
2022-08-20T00:56:47.845Z,1010.82
2022-08-20T00:56:57.270Z,1010.82
2022-08-20T00:57:16.121Z,1010.83
2022-08-20T00:57:25.534Z,1010.75
2022-08-20T00:57:51.226Z,1010.76
2022-08-20T00:57:58.990Z,1010.86
2022-08-20T00:58:00.769Z,1010.81
2022-08-20T00:58:03.805Z,1010.92
2022-08-20T00:58:12.661Z,1010.79
2022-08-20T00:58:22.072Z,1010.83
2022-08-20T00:58:31.538Z,1010.90
2022-08-20T00:58:40.961Z,1010.91
2022-08-20T00:58:50.366Z,1010.94
2022-08-20T00:58:59.774Z,1010.88
2022-08-20T00:59:09.243Z,1010.83
2022-08-20T00:59:18.670Z,1010.91
2022-08-20T00:59:28.103Z,1010.92
2022-08-20T00:59:37.553Z,1010.91
2022-08-20T00:59:46.981Z,1010.92
2022-08-20T01:00:05.834Z,1010.96
2022-08-20T01:00:15.663Z,1010.93
2022-08-20T01:00:25.058Z,1010.95
2022-08-20T01:00:34.505Z,1010.96
2022-08-20T01:00:44.066Z,1010.90
2022-08-20T01:00:53.494Z,1010.91
2022-08-20T01:01:02.906Z,1010.94
2022-08-20T01:01:12.321Z,1010.93
2022-08-20T01:01:21.760Z,1010.99
2022-08-20T01:01:31.196Z,1010.90
2022-08-20T01:01:41.971Z,1011.05
2022-08-20T01:01:55.098Z,1011.01
2022-08-20T01:01:59.458Z,1010.95
2022-08-20T01:02:08.884Z,1010.93
2022-08-20T01:02:18.327Z,1011.00
2022-08-20T01:02:27.657Z,1010.99
2022-08-20T01:02:37.080Z,1010.96
2022-08-20T01:02:55.945Z,1011.01
2022-08-20T01:03:05.361Z,1011.04
2022-08-20T01:03:14.766Z,1011.05
2022-08-20T01:03:24.167Z,1011.08
2022-08-20T01:03:33.585Z,1011.02
2022-08-20T01:03:42.971Z,1011.03
2022-08-20T01:03:52.377Z,1011.02
2022-08-20T01:04:01.766Z,1011.02
2022-08-20T01:04:11.175Z,1011.03
2022-08-20T01:04:20.571Z,1011.09
2022-08-20T01:04:30.029Z,1011.08
2022-08-20T01:04:39.441Z,1011.10
2022-08-20T01:04:48.848Z,1011.09
2022-08-20T01:04:58.262Z,1011.15
2022-08-20T01:05:07.677Z,1011.04
2022-08-20T01:05:17.140Z,1011.03
2022-08-20T01:05:35.975Z,1011.01
2022-08-20T01:05:45.399Z,1010.94
2022-08-20T01:05:54.807Z,1011.06
2022-08-20T01:06:04.222Z,1011.04
2022-08-20T01:06:13.676Z,1011.05
2022-08-20T01:06:23.111Z,1011.00
2022-08-20T01:06:32.550Z,1011.04
2022-08-20T01:06:41.964Z,1010.96
2022-08-20T01:06:51.450Z,1011.01
2022-08-20T01:07:00.866Z,1010.95
2022-08-20T01:07:10.291Z,1011.02
2022-08-20T01:07:19.708Z,1011.01
2022-08-20T01:07:29.108Z,1011.04
2022-08-20T01:07:38.557Z,1011.10
2022-08-20T01:07:47.969Z,1010.98
2022-08-20T01:07:57.700Z,1011.05
2022-08-20T01:08:06.863Z,1011.02
2022-08-20T01:08:25.741Z,1011.09
2022-08-20T01:08:35.147Z,1011.01
2022-08-20T01:08:44.600Z,1011.03
2022-08-20T01:08:54.012Z,1011.07
2022-08-20T01:09:03.419Z,1011.02
2022-08-20T01:09:12.839Z,1011.01
2022-08-20T01:09:33.382Z,1011.03
2022-08-20T01:09:50.512Z,1011.07
2022-08-20T01:09:58.303Z,1011.05
2022-08-20T01:09:59.063Z,1011.06
2022-08-20T01:09:59.934Z,1011.02
2022-08-20T01:10:09.361Z,1011.03
2022-08-20T01:10:51.275Z,1011.14
2022-08-20T01:11:00.719Z,1011.12
2022-08-20T01:11:10.153Z,1011.09
2022-08-20T01:11:19.585Z,1011.08
2022-08-20T01:11:29.039Z,1011.10
2022-08-20T01:11:38.453Z,1011.13
2022-08-20T01:11:47.879Z,1011.08
2022-08-20T01:11:57.305Z,1011.11
2022-08-20T01:12:06.713Z,1011.16
2022-08-20T01:12:16.130Z,1011.15
2022-08-20T01:12:25.550Z,1011.12
2022-08-20T01:12:35.070Z,1011.10
2022-08-20T01:12:44.491Z,1011.17
2022-08-20T01:12:54.923Z,1011.14
2022-08-20T01:13:03.337Z,1011.18
2022-08-20T01:13:12.798Z,1011.12
2022-08-20T01:13:22.218Z,1011.09
2022-08-20T01:13:31.646Z,1011.24
2022-08-20T01:13:41.061Z,1011.19
2022-08-20T01:13:50.509Z,1011.18
2022-08-20T01:13:59.921Z,1011.21
2022-08-20T01:14:09.329Z,1011.23
2022-08-20T01:14:18.773Z,1011.15
2022-08-20T01:14:28.206Z,1011.16
2022-08-20T01:14:37.619Z,1011.13
2022-08-20T01:14:47.038Z,1011.18
2022-08-20T01:14:56.455Z,1011.18
2022-08-20T01:15:05.867Z,1011.21
2022-08-20T01:15:15.335Z,1011.18
2022-08-20T01:15:26.857Z,1011.18
2022-08-20T01:15:34.205Z,1011.16
2022-08-20T01:15:43.683Z,1011.17
2022-08-20T01:15:53.005Z,1011.22
2022-08-20T01:16:02.445Z,1011.15
2022-08-20T01:16:11.841Z,1011.17
2022-08-20T01:16:21.243Z,1011.21
2022-08-20T01:16:30.732Z,1011.14
2022-08-20T01:16:40.667Z,1011.14
2022-08-20T01:16:49.609Z,1011.16
2022-08-20T01:16:59.017Z,1011.14
2022-08-20T01:17:08.425Z,1011.20
2022-08-20T01:17:17.967Z,1011.12
2022-08-20T01:17:27.268Z,1011.20
2022-08-20T01:17:46.129Z,1011.16
2022-08-20T01:17:55.747Z,1011.16
2022-08-20T01:18:05.005Z,1011.22
2022-08-20T01:18:14.424Z,1011.17
2022-08-20T01:18:23.843Z,1011.15
2022-08-20T01:18:33.266Z,1011.16
2022-08-20T01:18:42.690Z,1011.11
2022-08-20T01:18:52.118Z,1011.10
2022-08-20T01:19:01.613Z,1011.16
2022-08-20T01:19:29.424Z,1011.07
2022-08-20T01:19:29.868Z,1011.11
2022-08-20T01:19:30.408Z,1011.05
2022-08-20T01:19:39.635Z,1011.07
2022-08-20T01:19:49.071Z,1011.09
2022-08-20T01:19:58.501Z,1011.08
2022-08-20T01:20:07.933Z,1011.04
2022-08-20T01:20:17.401Z,1011.10
2022-08-20T01:20:26.844Z,1011.11
2022-08-20T01:20:45.713Z,1011.10
2022-08-20T01:20:55.129Z,1011.05
2022-08-20T01:21:04.524Z,1011.06
2022-08-20T01:21:13.925Z,1011.06
2022-08-20T01:21:23.331Z,1011.06
2022-08-20T01:21:32.815Z,1011.05
2022-08-20T01:21:43.001Z,1011.07
2022-08-20T01:21:51.980Z,1011.09
2022-08-20T01:22:01.071Z,1011.10
2022-08-20T01:22:10.501Z,1011.07
2022-08-20T01:22:19.917Z,1011.07
2022-08-20T01:22:29.337Z,1011.06
2022-08-20T01:22:38.759Z,1011.04
2022-08-20T01:22:48.184Z,1011.06
2022-08-20T01:22:57.636Z,1011.01
2022-08-20T01:23:07.056Z,1011.09
2022-08-20T01:23:25.909Z,1011.08
2022-08-20T01:23:35.322Z,1011.04
2022-08-20T01:23:44.750Z,1011.14
2022-08-20T01:23:54.171Z,1011.07
2022-08-20T01:24:03.598Z,1011.11
2022-08-20T01:24:13.014Z,1011.10
2022-08-20T01:24:22.426Z,1011.09
2022-08-20T01:24:32.036Z,1011.10
2022-08-20T01:24:41.450Z,1011.04
2022-08-20T01:24:50.867Z,1011.04
2022-08-20T01:25:00.318Z,1011.05
2022-08-20T01:25:09.715Z,1011.05
2022-08-20T01:25:19.116Z,1011.07
2022-08-20T01:25:28.561Z,1011.09
2022-08-20T01:25:38.001Z,1011.05
2022-08-20T01:25:47.437Z,1010.99
2022-08-20T01:25:56.843Z,1011.11
2022-08-20T01:26:15.672Z,1011.04
2022-08-20T01:26:25.087Z,1011.09
2022-08-20T01:26:34.514Z,1011.12
2022-08-20T01:26:43.915Z,1011.10
2022-08-20T01:26:53.337Z,1011.09
2022-08-20T01:27:02.763Z,1011.08
2022-08-20T01:27:12.189Z,1011.06
2022-08-20T01:27:21.604Z,1011.07
2022-08-20T01:27:31.045Z,1011.06
2022-08-20T01:27:42.789Z,1011.08
2022-08-20T01:27:55.125Z,1011.08
2022-08-20T01:27:59.531Z,1011.13
2022-08-20T01:28:08.732Z,1011.09
2022-08-20T01:28:18.145Z,1011.08
2022-08-20T01:28:27.573Z,1011.10
2022-08-20T01:28:36.982Z,1011.09
2022-08-20T01:28:55.801Z,1011.10
2022-08-20T01:29:05.262Z,1011.07
2022-08-20T01:29:14.643Z,1011.10
2022-08-20T01:29:24.060Z,1011.08
2022-08-20T01:29:33.490Z,1011.07
2022-08-20T01:29:42.906Z,1011.11
2022-08-20T01:29:52.350Z,1011.07
2022-08-20T01:30:01.832Z,1011.12
2022-08-20T01:30:11.222Z,1011.11
2022-08-20T01:30:20.659Z,1011.11
2022-08-20T01:30:30.127Z,1011.12
2022-08-20T01:30:39.523Z,1011.07
2022-08-20T01:30:48.931Z,1011.17
2022-08-20T01:30:58.356Z,1011.15
2022-08-20T01:31:07.765Z,1011.16
2022-08-20T01:31:17.349Z,1011.10
2022-08-20T01:31:36.050Z,1011.11
2022-08-20T01:31:45.459Z,1011.18
2022-08-20T01:31:54.859Z,1011.16
2022-08-20T01:32:04.282Z,1011.14
2022-08-20T01:32:13.680Z,1011.14
2022-08-20T01:32:23.087Z,1011.18
2022-08-20T01:32:32.483Z,1011.19
2022-08-20T01:32:41.898Z,1011.16
2022-08-20T01:32:51.373Z,1011.19
2022-08-20T01:33:00.838Z,1011.24
2022-08-20T01:33:10.258Z,1011.17
2022-08-20T01:33:19.656Z,1011.19
2022-08-20T01:33:29.061Z,1011.18
2022-08-20T01:33:38.477Z,1011.12
2022-08-20T01:33:47.871Z,1011.11
2022-08-20T01:33:57.281Z,1011.16
2022-08-20T01:34:16.088Z,1011.17
2022-08-20T01:34:25.502Z,1011.15
2022-08-20T01:34:34.927Z,1011.12
2022-08-20T01:34:44.339Z,1011.17
2022-08-20T01:34:53.743Z,1011.11
2022-08-20T01:35:03.174Z,1011.07
2022-08-20T01:35:12.587Z,1011.17
2022-08-20T01:35:21.993Z,1011.06
2022-08-20T01:35:31.449Z,1011.12
2022-08-20T01:35:40.853Z,1011.11
2022-08-20T01:35:50.275Z,1011.11
2022-08-20T01:35:59.694Z,1011.17
2022-08-20T01:36:09.091Z,1011.08
2022-08-20T01:36:18.515Z,1011.10
2022-08-20T01:36:27.942Z,1011.06
2022-08-20T01:36:37.349Z,1011.11
2022-08-20T01:36:46.938Z,1011.16
2022-08-20T01:37:05.787Z,1011.20
2022-08-20T01:37:15.175Z,1011.08
2022-08-20T01:37:24.596Z,1011.10
2022-08-20T01:37:33.996Z,1011.10
2022-08-20T01:37:43.420Z,1011.17
2022-08-20T01:37:52.836Z,1011.08
2022-08-20T01:38:02.241Z,1011.10
2022-08-20T01:38:11.638Z,1011.10
2022-08-20T01:38:21.061Z,1011.16
2022-08-20T01:38:30.508Z,1011.06
2022-08-20T01:38:39.902Z,1011.14
2022-08-20T01:38:54.159Z,1011.06
2022-08-20T01:38:58.731Z,1011.08
2022-08-20T01:39:08.138Z,1011.14
2022-08-20T01:39:17.534Z,1011.10
2022-08-20T01:39:26.929Z,1011.07
2022-08-20T01:39:45.853Z,1011.13
2022-08-20T01:39:55.178Z,1011.12
2022-08-20T01:40:04.667Z,1011.15
2022-08-20T01:40:14.136Z,1011.14
2022-08-20T01:40:23.373Z,1011.13
2022-08-20T01:40:32.829Z,1011.07
2022-08-20T01:40:42.251Z,1011.06
2022-08-20T01:40:51.652Z,1011.13
2022-08-20T01:41:01.082Z,1011.12
2022-08-20T01:41:10.473Z,1011.10
2022-08-20T01:41:19.892Z,1011.16
2022-08-20T01:41:29.297Z,1011.14
2022-08-20T01:41:38.712Z,1011.10
2022-08-20T01:41:48.110Z,1011.12
2022-08-20T01:41:57.510Z,1011.14
2022-08-20T01:42:06.917Z,1011.06
2022-08-20T01:42:25.767Z,1011.12
2022-08-20T01:42:35.194Z,1011.12
2022-08-20T01:42:52.746Z,1011.06
2022-08-20T01:42:59.259Z,1011.09
2022-08-20T01:43:03.441Z,1011.07
2022-08-20T01:43:12.897Z,1011.08
2022-08-20T01:43:22.309Z,1011.02
2022-08-20T01:43:32.274Z,1011.04
2022-08-20T01:43:41.147Z,1011.11
2022-08-20T01:43:50.548Z,1011.11
2022-08-20T01:43:59.983Z,1011.09
2022-08-20T01:44:16.707Z,1011.09
2022-08-20T01:44:18.813Z,1011.08
2022-08-20T01:44:28.237Z,1011.06
2022-08-20T01:44:37.637Z,1011.06
2022-08-20T01:44:47.137Z,1011.02
2022-08-20T01:45:05.998Z,1011.09
2022-08-20T01:45:15.412Z,1011.11
2022-08-20T01:45:26.910Z,1011.04
2022-08-20T01:45:34.296Z,1011.04
2022-08-20T01:45:43.697Z,1011.04
2022-08-20T01:45:53.097Z,1011.05
2022-08-20T01:46:02.501Z,1011.02
2022-08-20T01:46:11.900Z,1011.01
2022-08-20T01:46:21.340Z,1011.02
2022-08-20T01:46:30.744Z,1011.03
2022-08-20T01:46:43.707Z,1011.02
2022-08-20T01:46:49.584Z,1011.05
2022-08-20T01:46:58.992Z,1011.04
2022-08-20T01:47:08.395Z,1011.06
2022-08-20T01:47:17.785Z,1011.05
2022-08-20T01:47:27.201Z,1011.04
2022-08-20T01:47:46.073Z,1011.08
2022-08-20T01:47:55.676Z,1011.04
2022-08-20T01:48:04.906Z,1011.06
2022-08-20T01:48:14.301Z,1011.05
2022-08-20T01:48:23.722Z,1011.08
2022-08-20T01:48:33.146Z,1011.09
2022-08-20T01:48:42.567Z,1011.01
2022-08-20T01:48:51.967Z,1011.07
2022-08-20T01:49:01.425Z,1011.03
2022-08-20T01:49:12.394Z,1011.10
2022-08-20T01:49:23.079Z,1011.00
2022-08-20T01:49:29.677Z,1011.04
2022-08-20T01:49:39.087Z,1011.03
2022-08-20T01:49:48.495Z,1011.05
2022-08-20T01:49:57.913Z,1011.04
2022-08-20T01:50:07.325Z,1011.03
2022-08-20T01:50:16.761Z,1011.04
2022-08-20T01:50:35.667Z,1011.09
2022-08-20T01:50:45.140Z,1011.04
2022-08-20T01:50:54.562Z,1011.04
2022-08-20T01:51:03.984Z,1011.02
2022-08-20T01:51:13.405Z,1011.02
2022-08-20T01:51:22.810Z,1011.02
2022-08-20T01:51:32.255Z,1011.01
2022-08-20T01:51:41.697Z,1010.98
2022-08-20T01:51:51.152Z,1010.95
2022-08-20T01:52:00.563Z,1011.09
2022-08-20T01:52:09.984Z,1011.01
2022-08-20T01:52:19.402Z,1011.05
2022-08-20T01:52:28.831Z,1011.03
2022-08-20T01:52:38.319Z,1011.02
2022-08-20T01:52:47.799Z,1011.04
2022-08-20T01:52:57.211Z,1010.99
2022-08-20T01:53:16.043Z,1011.02
2022-08-20T01:53:25.465Z,1010.99
2022-08-20T01:53:34.888Z,1011.06
2022-08-20T01:53:44.297Z,1011.01
2022-08-20T01:53:53.721Z,1011.02
2022-08-20T01:54:03.126Z,1011.03
2022-08-20T01:54:12.520Z,1011.00
2022-08-20T01:54:21.960Z,1011.05
2022-08-20T01:54:31.405Z,1011.05
2022-08-20T01:54:40.825Z,1011.06
2022-08-20T01:54:50.247Z,1010.99
2022-08-20T01:54:59.658Z,1011.06
2022-08-20T01:55:09.079Z,1011.08
2022-08-20T01:55:18.503Z,1011.06
2022-08-20T01:55:27.936Z,1011.01
2022-08-20T01:55:37.367Z,1011.10
2022-08-20T01:55:46.791Z,1011.04
2022-08-20T01:56:05.611Z,1011.04
2022-08-20T01:56:15.078Z,1011.08
2022-08-20T01:56:24.519Z,1011.01
2022-08-20T01:56:33.922Z,1011.04
2022-08-20T01:56:43.339Z,1011.04
2022-08-20T01:56:52.750Z,1011.03
2022-08-20T01:57:02.183Z,1011.02
2022-08-20T01:57:11.573Z,1011.00
2022-08-20T01:57:20.973Z,1011.04
2022-08-20T01:57:30.406Z,1011.00
2022-08-20T01:57:39.814Z,1011.10
2022-08-20T01:57:49.291Z,1011.04
2022-08-20T01:57:58.661Z,1010.96
2022-08-20T01:58:08.080Z,1011.03
2022-08-20T01:58:17.476Z,1011.01
2022-08-20T01:58:26.891Z,1011.00
2022-08-20T01:58:45.737Z,1011.06
2022-08-20T01:58:56.039Z,1011.05
2022-08-20T01:59:04.565Z,1011.09
2022-08-20T01:59:13.988Z,1011.13
2022-08-20T01:59:23.402Z,1011.08
2022-08-20T01:59:32.827Z,1011.06
2022-08-20T01:59:42.215Z,1011.14
2022-08-20T01:59:51.613Z,1011.12
2022-08-20T02:00:01.071Z,1011.06
2022-08-20T02:00:11.023Z,1011.11
2022-08-20T02:00:21.981Z,1011.11
2022-08-20T02:00:29.292Z,1011.09
2022-08-20T02:00:38.747Z,1011.11
2022-08-20T02:00:48.294Z,1011.11
2022-08-20T02:00:57.736Z,1011.15